Port Hope, MI

00:24 EDT le 02 avril 2015 (GMT -0400)
Eastwatch-by-the-Sea | | Change Station
CLOSE
Current Station
Stations météorologiques personnelles
Location: Port Hope, MI
Altitude: 565 ft
Stations météo à proximité

Alt. 565 ft 43.95 °N, 82.72 °W | Updated 21 seconds ago

Ciel dégagé
Ciel dégagé
38.3 ° F
Paraît 36 ° F
N
3.6
Vent Variable Vent de SE
Gusts 4.9 mph

Aujourd'hui
Haut(e) -- | Bas -- ° F
--% Risque de précip.
Hier
Haut(e) -- | Bas -- ° F
Precip. -- pouce
7:11 AM 7:59 PM
Lune gibbeuse croissante, 95% visible
Pression 29.94 pouce
Visibilité 7.0 Miles terrestres
Nuages Ciel dégagé
Refroidissement éolien 36 ° F
Point de rosée 36 ° F
Humidité 92%
Précipitations 0.00 pouce
Profondeur de la couche neigeuse Non disponible.
UV 0.0 sur 12
Pollen 6.80 sur 12
Qualité de l'air Non disponible.
Flu Activity Non disponible.
METAR KBAX 020414Z AUTO 18012KT 7SM CLR 07/03 A2994 RMK AO2 T00660030

More Conditions Fewer Conditions

Pression 29.94 pouce
Visibilité 7.0 Miles terrestres
Nuages Ciel dégagé
Refroidissement éolien 36 ° F
Point de rosée 36 ° F
Humidité 92%
Précipitations 0.00 pouce
Profondeur de la couche neigeuse Non disponible.
UV 0.0 sur 12
Pollen 6.80 sur 12
Qualité de l'air Non disponible.
Flu Activity Non disponible.
METAR KBAX 020414Z AUTO 18012KT 7SM CLR 07/03 A2994 RMK AO2 T00660030

More Conditions Fewer Conditions

10-Day Weather Forecast

Almanac

Astronomie

Apr. 02, 2015 Lever Coucher
Temps réel
Crépuscule civil
Crépuscule nautique
Crépuscule astronomique
Lune
Durée de lumière visible
Longueur du jour
Tomorrow will be .
, % of the Moon is Illuminated

Extrêmes aujourd'hui

State Highs State Lows

Community

WunderPhotos

Upload Photos

1,810,197 Photos téléchargées !

WunderBlogs® & News

Nearby

Qualité de l'air

  Qualité de l'air Indice de la qualité de l'air Polluant
Not available.

Épaisseur de neige

Station Depth Altitude

Activité sismique

Ville Distance Mag. Time & Date
Minimum magnitude displayed is 2.5.

Températures des eaux côtières

Lieu Température

Stations

Stations météo à proximité

Emplacement de la station Température Refroidissement éolien Point de rosée Humidité Vent Precip. Alt. Mise à jour Type